Time;durP1;ratioP1;P1;durP2;ratioP2;P2;SDS_P1;SDS_P2;PMS_P1;PMS_P2;Temp;Humidity;BMP_temperature;BMP_pressure;BME280_temperature;BME280_humidity;BME280_pressure;Samples;Min_cycle;Max_cycle;Signal;HPM_P1;HPM_P2
2024/01/02 00:02:21;;;;;;;3.03;0.90;;;17.70;64.20;;;;;;6241732;22;45123;-51
2024/01/02 00:04:48;;;;;;;4.38;1.20;;;17.70;64.30;;;;;;6240229;22;45036;-51
2024/01/02 00:07:15;;;;;;;3.05;0.90;;;17.70;64.30;;;;;;6243049;22;45079;-51
2024/01/02 00:09:44;;;;;;;3.45;0.90;;;17.70;64.30;;;;;;6241236;22;46140;-51
2024/01/02 00:12:10;;;;;;;2.20;0.88;;;17.70;64.40;;;;;;6241689;22;45125;-51
2024/01/02 00:14:37;;;;;;;3.67;1.00;;;17.70;64.50;;;;;;6240415;22;45066;-51
2024/01/02 00:17:04;;;;;;;1.42;0.80;;;17.70;64.50;;;;;;6240620;22;45068;-51
2024/01/02 00:19:31;;;;;;;3.33;0.90;;;17.70;64.60;;;;;;6242530;22;45153;-51
2024/01/02 00:21:58;;;;;;;2.70;0.82;;;17.70;65.50;;;;;;6242147;22;45060;-51
2024/01/02 00:24:23;;;;;;;1.95;0.90;;;17.70;64.40;;;;;;6242121;22;45143;-51
2024/01/02 00:26:51;;;;;;;1.63;0.75;;;17.70;64.50;;;;;;6242315;22;45180;-51
2024/01/02 00:29:18;;;;;;;1.55;0.60;;;17.70;64.50;;;;;;6238106;22;46500;-51
2024/01/02 00:31:46;;;;;;;1.30;0.57;;;17.70;64.60;;;;;;6240171;22;45013;-51
2024/01/02 00:34:12;;;;;;;3.45;0.80;;;17.70;64.60;;;;;;6242592;22;45252;-51
2024/01/02 00:36:39;;;;;;;2.38;1.00;;;17.70;64.60;;;;;;6243090;22;45377;-51
2024/01/02 00:39:06;;;;;;;3.47;0.80;;;17.70;64.70;;;;;;6241568;22;45204;-51
2024/01/02 00:41:33;;;;;;;1.63;0.52;;;17.70;64.70;;;;;;6241932;22;44606;-51
2024/01/02 00:44:01;;;;;;;1.45;0.73;;;17.70;64.70;;;;;;6238382;22;45037;-51
2024/01/02 00:46:29;;;;;;;2.08;0.90;;;17.70;64.70;;;;;;6242469;22;45200;-51
2024/01/02 00:48:56;;;;;;;3.90;0.88;;;17.70;64.80;;;;;;6241950;22;45488;-51
2024/01/02 00:51:23;;;;;;;2.53;0.60;;;17.70;64.80;;;;;;6241061;22;45090;-51
2024/01/02 00:53:49;;;;;;;2.15;0.77;;;17.70;64.80;;;;;;6242436;22;45000;-51
2024/01/02 00:56:16;;;;;;;1.17;0.57;;;17.70;64.80;;;;;;6242966;22;45197;-51
2024/01/02 00:58:43;;;;;;;2.25;0.60;;;17.70;64.90;;;;;;6240295;22;45425;-51
2024/01/02 01:01:11;;;;;;;1.38;0.63;;;17.70;64.90;;;;;;6240056;22;45040;-51
2024/01/02 01:03:38;;;;;;;1.70;0.60;;;17.70;64.80;;;;;;6239800;22;45048;-51
2024/01/02 01:06:05;;;;;;;2.00;0.70;;;17.70;64.70;;;;;;6242883;22;44988;-51
2024/01/02 01:08:32;;;;;;;1.25;0.50;;;17.70;64.80;;;;;;6239961;22;46137;-51
2024/01/02 01:10:59;;;;;;;1.55;0.70;;;17.70;65.00;;;;;;6240728;22;45224;-51
2024/01/02 01:13:26;;;;;;;2.92;1.00;;;17.70;64.90;;;;;;6239844;22;45056;-51
2024/01/02 01:15:52;;;;;;;2.15;0.82;;;17.70;65.00;;;;;;6237361;22;45045;-51
2024/01/02 01:18:21;;;;;;;1.58;0.60;;;17.70;64.90;;;;;;6242110;22;45008;-51
2024/01/02 01:20:47;;;;;;;2.08;0.70;;;17.70;65.00;;;;;;6241767;22;45090;-51
2024/01/02 01:23:14;;;;;;;1.40;0.60;;;17.70;65.10;;;;;;6239865;22;44642;-51
2024/01/02 01:25:41;;;;;;;1.17;0.50;;;17.70;65.00;;;;;;6242357;22;45190;-51
2024/01/02 01:28:08;;;;;;;0.80;0.50;;;17.70;65.20;;;;;;6242035;22;45385;-51
2024/01/02 01:30:34;;;;;;;0.82;0.50;;;17.70;65.10;;;;;;6239820;22;45051;-51
2024/01/02 01:33:01;;;;;;;1.88;0.65;;;17.70;65.20;;;;;;6241789;22;45105;-51
2024/01/02 01:35:29;;;;;;;1.52;0.65;;;17.70;65.30;;;;;;6241558;22;45250;-51
2024/01/02 01:37:56;;;;;;;1.58;0.50;;;17.70;65.30;;;;;;6240257;22;45106;-51
2024/01/02 01:40:23;;;;;;;0.90;0.55;;;17.70;65.30;;;;;;6242105;22;45013;-51
2024/01/02 01:42:50;;;;;;;2.05;0.50;;;17.70;65.30;;;;;;6241160;22;45106;-51
2024/01/02 01:45:18;;;;;;;1.52;0.43;;;17.70;65.50;;;;;;6238505;22;45107;-51
2024/01/02 01:47:45;;;;;;;1.40;0.50;;;17.70;65.40;;;;;;6240896;22;47454;-51
2024/01/02 01:50:14;;;;;;;1.52;0.45;;;17.70;65.40;;;;;;6238588;22;45415;-51
2024/01/02 01:52:43;;;;;;;1.08;0.50;;;17.70;65.40;;;;;;6241528;22;45144;-51
2024/01/02 01:55:11;;;;;;;0.52;0.32;;;17.70;65.30;;;;;;6242413;22;45209;-51
2024/01/02 01:57:40;;;;;;;2.03;0.40;;;17.70;65.40;;;;;;6241990;22;45059;-51
2024/01/02 02:00:08;;;;;;;1.15;0.60;;;17.70;65.50;;;;;;6235983;22;45143;-51
2024/01/02 02:02:35;;;;;;;0.60;0.40;;;17.70;65.50;;;;;;6242113;22;45229;-51
2024/01/02 02:05:03;;;;;;;2.28;0.60;;;17.70;65.60;;;;;;6240251;22;45093;-51
2024/01/02 02:07:31;;;;;;;0.68;0.25;;;17.70;65.60;;;;;;6242163;22;48078;-51
2024/01/02 02:09:59;;;;;;;1.02;0.57;;;17.70;65.60;;;;;;6240387;22;45107;-51
2024/01/02 02:12:26;;;;;;;1.00;0.35;;;17.70;65.60;;;;;;6240375;22;45057;-51
2024/01/02 02:14:53;;;;;;;1.17;0.40;;;17.70;65.70;;;;;;6240238;22;45083;-51
2024/01/02 02:17:20;;;;;;;0.35;0.25;;;17.70;65.70;;;;;;6240320;22;45118;-51
2024/01/02 02:19:46;;;;;;;1.38;0.50;;;17.70;65.60;;;;;;6241470;22;45205;-51
2024/01/02 02:22:18;;;;;;;0.85;0.40;;;17.70;65.60;;;;;;6242119;22;45096;-51
2024/01/02 02:24:46;;;;;;;0.95;0.40;;;17.70;65.60;;;;;;6240610;22;45366;-51
2024/01/02 02:27:16;;;;;;;0.80;0.30;;;17.70;65.60;;;;;;6242270;22;44981;-51
2024/01/02 02:29:43;;;;;;;0.38;0.30;;;17.70;65.60;;;;;;6241535;22;45056;-51
2024/01/02 02:32:10;;;;;;;1.05;0.30;;;17.70;65.60;;;;;;6240932;22;45097;-51
2024/01/02 02:34:37;;;;;;;0.65;0.10;;;17.70;65.60;;;;;;6243220;22;45036;-51
2024/01/02 02:37:03;;;;;;;0.80;0.20;;;17.70;65.60;;;;;;6242572;22;45259;-51
2024/01/02 02:39:30;;;;;;;0.45;0.30;;;17.70;65.60;;;;;;6241599;22;45638;-51
2024/01/02 02:41:58;;;;;;;0.73;0.25;;;17.70;65.50;;;;;;6241415;22;45210;-51
2024/01/02 02:44:25;;;;;;;0.10;0.10;;;17.70;65.50;;;;;;6240039;22;45053;-51
2024/01/02 02:46:52;;;;;;;0.65;0.20;;;17.70;65.50;;;;;;6240836;22;45223;-51
2024/01/02 02:49:19;;;;;;;0.85;0.40;;;17.70;65.40;;;;;;6242084;22;45547;-51
2024/01/02 02:51:46;;;;;;;1.40;0.10;;;17.70;65.50;;;;;;6241120;22;44592;-51
2024/01/02 02:54:13;;;;;;;0.98;0.57;;;17.70;65.60;;;;;;6241373;22;45131;-51
2024/01/02 02:56:39;;;;;;;0.68;0.30;;;17.70;65.60;;;;;;6241829;22;46473;-51
2024/01/02 02:59:08;;;;;;;1.35;0.30;;;17.70;65.60;;;;;;6240893;22;45159;-51
2024/01/02 03:01:34;;;;;;;0.60;0.15;;;17.70;65.60;;;;;;6241915;22;44539;-50
2024/01/02 03:04:01;;;;;;;0.40;0.20;;;17.70;65.50;;;;;;6242270;22;45084;-51
2024/01/02 03:06:28;;;;;;;0.28;0.10;;;17.70;65.60;;;;;;6240673;22;45415;-51
2024/01/02 03:08:54;;;;;;;0.40;0.20;;;17.70;65.60;;;;;;6242866;22;45005;-50
2024/01/02 03:11:21;;;;;;;0.30;0.20;;;17.70;65.60;;;;;;6239994;22;45118;-51
2024/01/02 03:13:48;;;;;;;0.32;0.20;;;17.70;65.70;;;;;;6239089;22;45262;-51
2024/01/02 03:16:16;;;;;;;0.30;0.20;;;17.70;65.70;;;;;;6240674;22;46964;-50
2024/01/02 03:18:43;;;;;;;0.60;0.20;;;17.70;65.60;;;;;;6241339;22;45044;-51
2024/01/02 03:21:10;;;;;;;0.35;0.25;;;17.70;65.60;;;;;;6242522;22;45044;-51
2024/01/02 03:23:37;;;;;;;1.35;0.20;;;17.70;65.60;;;;;;6242129;22;45332;-51
2024/01/02 03:26:05;;;;;;;0.30;0.20;;;17.70;66.80;;;;;;6241523;22;45098;-51
2024/01/02 03:28:32;;;;;;;0.10;0.10;;;17.70;65.90;;;;;;6243276;22;45139;-51
2024/01/02 03:30:59;;;;;;;0.25;0.10;;;17.70;65.70;;;;;;6240386;22;45023;-51
2024/01/02 03:33:27;;;;;;;0.20;0.10;;;17.70;65.80;;;;;;6243166;22;45053;-50
2024/01/02 03:35:54;;;;;;;0.10;0.10;;;17.70;65.80;;;;;;6242044;22;45490;-51
2024/01/02 03:38:21;;;;;;;0.20;0.10;;;17.70;66.90;;;;;;6242528;22;45243;-51
2024/01/02 03:40:47;;;;;;;0.45;0.20;;;17.70;66.00;;;;;;6242405;22;45153;-51
2024/01/02 03:43:14;;;;;;;0.90;0.10;;;17.70;65.90;;;;;;6239086;22;45000;-51
2024/01/02 03:45:41;;;;;;;0.55;0.30;;;17.70;65.90;;;;;;6241983;22;45989;-51
2024/01/02 03:48:08;;;;;;;0.40;0.10;;;17.70;66.00;;;;;;6241846;22;45144;-51
2024/01/02 03:50:36;;;;;;;0.10;0.00;;;17.70;65.90;;;;;;6239072;22;45135;-50
2024/01/02 03:53:03;;;;;;;0.25;0.10;;;17.70;65.70;;;;;;6242699;22;45088;-51
2024/01/02 03:55:30;;;;;;;1.17;0.15;;;17.70;64.90;;;;;;6242531;22;45457;-50
2024/01/02 03:57:57;;;;;;;0.68;0.20;;;17.70;65.00;;;;;;6242811;22;45072;-51
2024/01/02 04:00:23;;;;;;;0.60;0.20;;;17.70;65.20;;;;;;6239912;22;45014;-50
2024/01/02 04:02:50;;;;;;;0.20;0.10;;;17.70;65.50;;;;;;6242743;22;45205;-51
2024/01/02 04:05:17;;;;;;;0.08;0.05;;;17.70;65.70;;;;;;6242288;22;46506;-50
2024/01/02 04:07:45;;;;;;;0.10;0.10;;;17.70;65.80;;;;;;6242501;22;45065;-51
2024/01/02 04:10:12;;;;;;;0.55;0.20;;;17.70;65.90;;;;;;6242641;22;45035;-51
2024/01/02 04:12:38;;;;;;;0.20;0.10;;;17.70;65.80;;;;;;6241525;22;45194;-51
2024/01/02 04:15:06;;;;;;;0.00;0.00;;;17.70;65.90;;;;;;6240305;22;45130;-50
2024/01/02 04:17:32;;;;;;;0.43;0.20;;;17.70;65.80;;;;;;6241694;22;45040;-51
2024/01/02 04:19:59;;;;;;;0.10;0.00;;;17.70;65.90;;;;;;6242075;22;45073;-51
2024/01/02 04:22:26;;;;;;;0.20;0.20;;;17.70;65.90;;;;;;6241843;22;45243;-51
2024/01/02 04:24:54;;;;;;;0.40;0.10;;;17.70;65.90;;;;;;6239614;22;47530;-50
2024/01/02 04:27:21;;;;;;;0.30;0.10;;;17.70;65.90;;;;;;6242508;22;45092;-51
2024/01/02 04:29:48;;;;;;;0.30;0.17;;;17.70;65.90;;;;;;6238452;22;45130;-51
2024/01/02 04:32:15;;;;;;;0.10;0.10;;;17.70;65.90;;;;;;6240694;22;45278;-51
2024/01/02 04:34:42;;;;;;;0.15;0.10;;;17.70;65.90;;;;;;6242509;22;46357;-51
2024/01/02 04:37:09;;;;;;;0.63;0.28;;;17.70;66.10;;;;;;6240431;22;45024;-50
2024/01/02 04:39:36;;;;;;;0.00;0.00;;;17.70;66.10;;;;;;6241413;22;45126;-51
2024/01/02 04:42:04;;;;;;;0.35;0.10;;;17.70;66.20;;;;;;6241821;22;45349;-51
2024/01/02 04:44:31;;;;;;;0.00;0.00;;;17.70;66.20;;;;;;6239596;22;45392;-50
2024/01/02 04:46:57;;;;;;;0.32;0.08;;;17.70;66.30;;;;;;6239934;22;45328;-51
2024/01/02 04:49:23;;;;;;;0.10;0.10;;;17.70;66.30;;;;;;6242097;22;45086;-50
2024/01/02 04:51:50;;;;;;;0.45;0.10;;;17.70;66.50;;;;;;6240280;22;45269;-50
2024/01/02 04:54:17;;;;;;;0.20;0.20;;;17.70;66.50;;;;;;6242965;22;45213;-51
2024/01/02 04:56:44;;;;;;;0.40;0.10;;;17.70;66.70;;;;;;6240263;22;45800;-50
2024/01/02 04:59:12;;;;;;;0.32;0.10;;;17.70;66.90;;;;;;6241274;22;45180;-51
2024/01/02 05:01:39;;;;;;;0.32;0.17;;;17.70;66.80;;;;;;6240977;22;45085;-50
2024/01/02 05:04:06;;;;;;;0.00;0.00;;;17.70;66.60;;;;;;6242491;22;45246;-50
2024/01/02 05:06:33;;;;;;;0.10;0.10;;;17.70;66.10;;;;;;6240341;22;45193;-50
2024/01/02 05:09:00;;;;;;;0.15;0.10;;;17.70;66.00;;;;;;6242599;22;45034;-51
2024/01/02 05:11:26;;;;;;;0.65;0.13;;;17.70;66.30;;;;;;6240864;22;44646;-50
2024/01/02 05:13:53;;;;;;;0.45;0.17;;;17.70;66.60;;;;;;6240872;22;45110;-50
2024/01/02 05:16:21;;;;;;;0.00;0.00;;;17.70;66.70;;;;;;6238242;22;45244;-51
2024/01/02 05:18:48;;;;;;;0.20;0.10;;;17.70;67.00;;;;;;6242417;22;45080;-50
2024/01/02 05:21:15;;;;;;;0.17;0.00;;;17.70;67.00;;;;;;6241507;22;45219;-50
2024/01/02 05:23:41;;;;;;;0.95;0.10;;;17.70;67.20;;;;;;6240363;22;45217;-50
2024/01/02 05:26:08;;;;;;;0.17;0.00;;;17.60;67.50;;;;;;6239512;22;45098;-50
2024/01/02 05:28:35;;;;;;;1.45;0.10;;;17.70;67.60;;;;;;6243574;22;45043;-50
2024/01/02 05:31:02;;;;;;;0.20;0.00;;;17.70;68.00;;;;;;6238719;22;45199;-50
2024/01/02 05:33:30;;;;;;;0.00;0.00;;;17.70;69.60;;;;;;6240805;22;45223;-50
2024/01/02 05:35:57;;;;;;;0.00;0.00;;;17.70;68.90;;;;;;6241733;22;45076;-50
2024/01/02 05:38:23;;;;;;;0.20;0.10;;;17.70;69.00;;;;;;6243044;22;45025;-50
2024/01/02 05:40:51;;;;;;;0.65;0.10;;;17.70;69.00;;;;;;6239750;22;45656;-50
2024/01/02 05:43:17;;;;;;;0.10;0.10;;;17.70;69.30;;;;;;6238989;22;48401;-51
2024/01/02 05:45:44;;;;;;;0.03;0.00;;;17.60;69.40;;;;;;6239026;22;46005;-50
2024/01/02 05:48:11;;;;;;;0.05;0.00;;;17.60;69.60;;;;;;6240378;22;45099;-50
2024/01/02 05:50:39;;;;;;;0.45;0.00;;;17.60;70.00;;;;;;6241158;22;45367;-51
2024/01/02 05:53:09;;;;;;;0.77;0.10;;;17.60;70.20;;;;;;6239735;22;45146;-51
2024/01/02 05:55:35;;;;;;;0.28;0.00;;;17.60;70.60;;;;;;6242504;22;45083;-51
2024/01/02 05:58:02;;;;;;;0.08;0.08;;;17.60;70.80;;;;;;6242530;22;45051;-50
2024/01/02 06:00:29;;;;;;;0.05;0.00;;;17.60;70.70;;;;;;6239637;22;45052;-50
2024/01/02 06:02:56;;;;;;;0.13;0.00;;;17.60;70.70;;;;;;6241571;22;45992;-51
2024/01/02 06:05:22;;;;;;;0.22;0.10;;;17.50;70.50;;;;;;6241479;22;44568;-51
2024/01/02 06:07:50;;;;;;;0.10;0.10;;;17.50;70.60;;;;;;6241438;22;44616;-50
2024/01/02 06:10:17;;;;;;;0.25;0.00;;;17.60;70.60;;;;;;6240323;22;45005;-50
2024/01/02 06:12:44;;;;;;;0.17;0.08;;;17.60;70.60;;;;;;6240533;22;46318;-51
2024/01/02 06:15:10;;;;;;;0.15;0.00;;;17.60;71.50;;;;;;6238923;22;45146;-51
2024/01/02 06:17:37;;;;;;;0.22;0.00;;;17.60;70.50;;;;;;6241457;22;45195;-50
2024/01/02 06:20:04;;;;;;;0.65;0.08;;;17.60;70.50;;;;;;6241081;22;45152;-51
2024/01/02 06:22:31;;;;;;;0.20;0.08;;;17.60;70.50;;;;;;6240001;22;45137;-50
2024/01/02 06:24:59;;;;;;;0.00;0.00;;;17.60;70.40;;;;;;6242348;22;45091;-50
2024/01/02 06:27:27;;;;;;;0.10;0.10;;;17.60;70.30;;;;;;6240888;22;45052;-50
2024/01/02 06:29:53;;;;;;;0.75;0.10;;;17.60;71.40;;;;;;6240737;22;45057;-51
2024/01/02 06:32:20;;;;;;;0.00;0.00;;;17.60;70.30;;;;;;6241427;22;46264;-50
2024/01/02 06:34:47;;;;;;;0.00;0.00;;;17.70;70.50;;;;;;6240811;22;45341;-50
2024/01/02 06:37:13;;;;;;;0.88;0.25;;;17.70;70.60;;;;;;6240163;22;45008;-51
2024/01/02 06:39:40;;;;;;;0.20;0.00;;;17.70;70.60;;;;;;6240427;22;45028;-51
2024/01/02 06:42:08;;;;;;;0.08;0.00;;;17.70;70.70;;;;;;6239105;22;47295;-51
2024/01/02 06:44:35;;;;;;;0.00;0.00;;;17.70;70.80;;;;;;6238674;22;45104;-50
2024/01/02 06:47:03;;;;;;;0.20;0.10;;;17.70;71.00;;;;;;6241433;22;45096;-50
2024/01/02 06:49:30;;;;;;;0.25;0.00;;;17.70;71.10;;;;;;6240488;22;44965;-50
2024/01/02 06:51:56;;;;;;;0.00;0.00;;;17.70;71.40;;;;;;6240193;22;45075;-51
2024/01/02 06:54:23;;;;;;;0.38;0.00;;;17.80;71.50;;;;;;6239932;22;45202;-51
2024/01/02 06:56:50;;;;;;;0.13;0.08;;;17.80;71.50;;;;;;6241666;22;45190;-51
2024/01/02 06:59:18;;;;;;;0.00;0.00;;;17.80;71.70;;;;;;6239763;22;45052;-51
2024/01/02 07:01:45;;;;;;;0.13;0.10;;;17.80;71.80;;;;;;6240716;22;46475;-50
2024/01/02 07:04:12;;;;;;;0.00;0.00;;;17.70;71.90;;;;;;6241722;22;45242;-50
2024/01/02 07:06:39;;;;;;;0.03;0.00;;;17.70;71.70;;;;;;6242723;22;45086;-50
2024/01/02 07:09:06;;;;;;;0.10;0.00;;;17.80;72.00;;;;;;6239147;22;45329;-50
2024/01/02 07:11:33;;;;;;;0.00;0.00;;;17.80;72.20;;;;;;6240706;22;46550;-51
2024/01/02 07:13:59;;;;;;;1.00;0.10;;;17.80;72.10;;;;;;6242637;22;45270;-50
2024/01/02 07:16:27;;;;;;;0.22;0.10;;;17.80;72.10;;;;;;6241621;22;44557;-50
2024/01/02 07:18:54;;;;;;;0.05;0.05;;;17.80;72.30;;;;;;6243097;22;45484;-51
2024/01/02 07:21:21;;;;;;;0.43;0.00;;;17.80;72.50;;;;;;6242117;22;46504;-50
2024/01/02 07:23:48;;;;;;;0.10;0.10;;;17.80;72.40;;;;;;6241093;22;45034;-50
2024/01/02 07:26:14;;;;;;;0.43;0.10;;;17.80;72.40;;;;;;6242828;22;45067;-50
2024/01/02 07:28:41;;;;;;;0.10;0.10;;;17.80;72.50;;;;;;6243607;22;45080;-51
2024/01/02 07:31:09;;;;;;;0.10;0.08;;;17.80;72.40;;;;;;6241408;22;45052;-51
2024/01/02 07:33:37;;;;;;;0.00;0.00;;;17.80;72.30;;;;;;6240886;22;44666;-51
2024/01/02 07:36:05;;;;;;;0.20;0.00;;;17.80;72.10;;;;;;6242685;22;45209;-51
2024/01/02 07:38:32;;;;;;;0.25;0.17;;;17.80;72.30;;;;;;6242145;22;45119;-51
2024/01/02 07:40:59;;;;;;;0.20;0.05;;;17.80;72.20;;;;;;6242250;22;47399;-51
2024/01/02 07:43:26;;;;;;;0.00;0.00;;;17.80;72.40;;;;;;6241694;22;45044;-51
2024/01/02 07:45:52;;;;;;;0.00;0.00;;;17.70;72.60;;;;;;6242092;22;45156;-51
2024/01/02 07:48:19;;;;;;;0.00;0.00;;;17.70;72.80;;;;;;6242991;22;45005;-51
2024/01/02 07:50:48;;;;;;;0.45;0.08;;;17.70;72.50;;;;;;6241441;22;44984;-51
2024/01/02 07:53:19;;;;;;;0.38;0.10;;;17.80;73.10;;;;;;6242381;22;45919;-51
2024/01/02 07:55:46;;;;;;;0.43;0.10;;;17.80;72.90;;;;;;6243299;22;45158;-50
2024/01/02 07:58:14;;;;;;;0.00;0.00;;;17.80;73.00;;;;;;6242731;22;45036;-51
2024/01/02 08:00:40;;;;;;;0.00;0.00;;;17.80;73.30;;;;;;6240863;22;45521;-51
2024/01/02 08:03:07;;;;;;;1.08;0.10;;;17.80;73.40;;;;;;6241838;22;45036;-51
2024/01/02 08:05:35;;;;;;;0.13;0.10;;;17.80;73.50;;;;;;6240834;22;45004;-51
2024/01/02 08:08:03;;;;;;;0.00;0.00;;;17.80;73.50;;;;;;6243287;22;45394;-51
2024/01/02 08:10:30;;;;;;;0.30;0.10;;;17.80;73.70;;;;;;6239583;22;46478;-51
2024/01/02 08:12:57;;;;;;;0.08;0.08;;;17.80;73.40;;;;;;6240056;22;45155;-51
2024/01/02 08:15:24;;;;;;;0.52;0.20;;;17.80;73.60;;;;;;6241613;22;44905;-51
2024/01/02 08:17:51;;;;;;;0.00;0.00;;;17.80;73.90;;;;;;6243279;22;45246;-51
2024/01/02 08:20:18;;;;;;;0.00;0.00;;;17.80;73.80;;;;;;6241956;22;46496;-51
2024/01/02 08:22:44;;;;;;;0.20;0.10;;;17.90;73.90;;;;;;6239202;22;45089;-51
2024/01/02 08:25:12;;;;;;;1.08;0.10;;;17.90;73.40;;;;;;6242246;22;45096;-51
2024/01/02 08:27:41;;;;;;;0.85;0.10;;;17.90;73.70;;;;;;6242521;22;45276;-51
2024/01/02 08:30:09;;;;;;;0.52;0.00;;;17.90;73.80;;;;;;6239832;22;45243;-51
2024/01/02 08:32:36;;;;;;;0.00;0.00;;;17.90;73.80;;;;;;6242640;22;45079;-51
2024/01/02 08:35:02;;;;;;;0.45;0.15;;;17.90;73.90;;;;;;6242700;22;45104;-51
2024/01/02 08:37:29;;;;;;;0.00;0.00;;;17.90;73.80;;;;;;6241146;22;45330;-51
2024/01/02 08:39:56;;;;;;;0.05;0.05;;;17.90;73.90;;;;;;6240613;22;46552;-51
2024/01/02 08:42:24;;;;;;;0.15;0.00;;;17.90;73.90;;;;;;6242120;22;45054;-51
2024/01/02 08:44:51;;;;;;;0.68;0.10;;;17.90;74.00;;;;;;6241823;22;44988;-51
2024/01/02 08:47:18;;;;;;;0.10;0.00;;;17.90;74.00;;;;;;6242846;22;45085;-50
2024/01/02 08:49:45;;;;;;;0.10;0.10;;;17.90;73.90;;;;;;6242335;22;47377;-51
2024/01/02 08:52:13;;;;;;;0.70;0.10;;;17.90;74.20;;;;;;6240033;22;45083;-50
2024/01/02 08:54:39;;;;;;;0.85;0.10;;;17.90;74.30;;;;;;6243307;22;45141;-51
2024/01/02 08:57:06;;;;;;;0.00;0.00;;;17.90;74.30;;;;;;6242431;22;45079;-50
2024/01/02 08:59:35;;;;;;;0.08;0.08;;;17.90;74.20;;;;;;6240881;22;45959;-51
2024/01/02 09:02:02;;;;;;;0.00;0.00;;;17.80;74.40;;;;;;6239986;22;45207;-51
2024/01/02 09:04:29;;;;;;;0.08;0.08;;;17.90;74.40;;;;;;6243385;22;45131;-51
2024/01/02 09:06:56;;;;;;;0.20;0.10;;;17.90;74.30;;;;;;6242704;22;45309;-51
2024/01/02 09:09:23;;;;;;;0.00;0.00;;;17.80;74.30;;;;;;6239554;22;45214;-51
2024/01/02 09:11:49;;;;;;;0.10;0.10;;;17.80;74.30;;;;;;6240482;22;45125;-51
2024/01/02 09:14:16;;;;;;;0.10;0.10;;;17.80;74.40;;;;;;6241435;22;45141;-51
2024/01/02 09:16:45;;;;;;;0.20;0.00;;;17.80;74.50;;;;;;6241998;22;45468;-51
2024/01/02 09:19:12;;;;;;;0.10;0.00;;;17.80;74.10;;;;;;6242392;22;47002;-51
2024/01/02 09:21:39;;;;;;;0.22;0.10;;;17.80;74.00;;;;;;6242157;22;45088;-51
2024/01/02 09:24:06;;;;;;;0.08;0.00;;;17.80;73.90;;;;;;6243324;22;45020;-51
2024/01/02 09:26:34;;;;;;;0.10;0.00;;;17.80;73.80;;;;;;6239387;22;45017;-51
2024/01/02 09:29:01;;;;;;;0.00;0.00;;;17.80;73.90;;;;;;6239424;22;46976;-51
2024/01/02 09:31:30;;;;;;;0.10;0.10;;;17.80;74.00;;;;;;6240513;22;45183;-51
2024/01/02 09:33:58;;;;;;;0.15;0.05;;;17.90;74.20;;;;;;6242719;22;45124;-51
2024/01/02 09:36:29;;;;;;;0.30;0.10;;;17.90;74.10;;;;;;6241503;22;45090;-51
2024/01/02 09:38:56;;;;;;;0.55;0.10;;;17.90;74.50;;;;;;6241524;22;48240;-51
2024/01/02 09:41:48;;;;;;;0.00;0.00;;;17.80;74.10;;;;;;6241920;22;45593;-51
2024/01/02 09:44:36;;;;;;;0.47;0.10;;;17.90;74.20;;;;;;6238218;22;45362;-51
2024/01/02 09:47:16;;;;;;;0.00;0.00;;;17.90;74.30;;;;;;6242020;22;45048;-51
2024/01/02 09:49:55;;;;;;;0.20;0.00;;;17.90;74.20;;;;;;6242190;22;46932;-51
2024/01/02 09:52:45;;;;;;;0.00;0.00;;;17.90;74.30;;;;;;6239652;22;45545;-51
2024/01/02 09:55:20;;;;;;;0.20;0.10;;;17.80;74.20;;;;;;6242535;22;45124;-51
2024/01/02 09:57:58;;;;;;;0.20;0.10;;;17.80;74.50;;;;;;6242717;22;45033;-51
2024/01/02 10:00:36;;;;;;;0.00;0.00;;;17.90;74.50;;;;;;6240187;22;46200;-51
2024/01/02 10:03:34;;;;;;;0.10;0.10;;;17.80;74.10;;;;;;6241576;22;45091;-51
2024/01/02 10:06:20;;;;;;;0.00;0.00;;;17.80;74.30;;;;;;6241983;22;45102;-51
2024/01/02 10:09:09;;;;;;;0.22;0.10;;;17.80;74.00;;;;;;6241652;22;45211;-51
2024/01/02 10:11:44;;;;;;;0.10;0.05;;;17.80;74.20;;;;;;6239368;22;45082;-51
2024/01/02 10:14:17;;;;;;;0.15;0.10;;;17.80;74.20;;;;;;6241009;22;46159;-51
2024/01/02 10:16:53;;;;;;;0.10;0.10;;;17.90;74.60;;;;;;6241995;22;45164;-51
2024/01/02 10:19:26;;;;;;;0.00;0.00;;;17.90;74.50;;;;;;6240761;22;44997;-51
2024/01/02 10:22:04;;;;;;;0.00;0.00;;;17.90;74.50;;;;;;6240593;22;45132;-51
2024/01/02 10:24:44;;;;;;;0.00;0.00;;;17.90;74.40;;;;;;6241088;22;45601;-51
2024/01/02 10:27:15;;;;;;;0.03;0.00;;;17.90;74.50;;;;;;6241499;22;45076;-50
2024/01/02 10:29:56;;;;;;;0.00;0.00;;;17.90;74.70;;;;;;6239243;22;45157;-51
2024/01/02 10:32:32;;;;;;;0.10;0.00;;;17.90;74.70;;;;;;6241809;22;45051;-51
2024/01/02 10:35:05;;;;;;;0.00;0.00;;;17.90;74.70;;;;;;6242294;22;44607;-50
2024/01/02 10:37:40;;;;;;;0.68;0.15;;;17.90;74.50;;;;;;6241586;22;45236;-51
2024/01/02 10:40:12;;;;;;;0.00;0.00;;;17.90;74.70;;;;;;6240310;22;45112;-51
2024/01/02 10:42:52;;;;;;;0.10;0.00;;;17.90;74.60;;;;;;6241671;22;48156;-51
2024/01/02 10:45:27;;;;;;;0.20;0.10;;;17.90;74.50;;;;;;6240448;22;45138;-51
2024/01/02 10:48:05;;;;;;;0.30;0.00;;;17.90;74.50;;;;;;6242970;22;45043;-51
2024/01/02 10:50:40;;;;;;;0.13;0.03;;;17.90;74.40;;;;;;6242688;22;45063;-51
2024/01/02 10:53:22;;;;;;;0.20;0.00;;;17.90;74.50;;;;;;6240451;22;48010;-51
2024/01/02 10:55:51;;;;;;;0.00;0.00;;;17.90;74.40;;;;;;6243218;22;45810;-51
2024/01/02 10:58:24;;;;;;;0.00;0.00;;;17.90;74.50;;;;;;6242183;22;45153;-51
2024/01/02 11:01:02;;;;;;;0.00;0.00;;;17.80;74.50;;;;;;6240684;22;45035;-51
2024/01/02 11:03:31;;;;;;;0.20;0.03;;;17.90;74.50;;;;;;6241745;22;46277;-51
2024/01/02 11:06:11;;;;;;;0.08;0.00;;;17.90;74.60;;;;;;6242584;22;45088;-51
2024/01/02 11:08:49;;;;;;;0.20;0.10;;;17.90;74.70;;;;;;6241935;22;45033;-51
2024/01/02 11:11:17;;;;;;;0.90;0.10;;;17.90;74.90;;;;;;6242635;22;44797;-51
2024/01/02 11:13:46;;;;;;;0.35;0.00;;;17.90;74.60;;;;;;6242660;22;45180;-51
2024/01/02 11:16:16;;;;;;;0.08;0.00;;;17.90;74.60;;;;;;6240170;22;45165;-51
2024/01/02 11:18:47;;;;;;;0.00;0.00;;;17.90;74.40;;;;;;6243496;22;45122;-51
2024/01/02 11:21:21;;;;;;;0.10;0.00;;;17.90;74.50;;;;;;6241342;22;45008;-51
2024/01/02 11:23:54;;;;;;;0.10;0.00;;;17.90;74.40;;;;;;6241244;22;47041;-51
2024/01/02 11:26:24;;;;;;;0.00;0.00;;;17.90;74.40;;;;;;6242975;22;45113;-51
2024/01/02 11:28:52;;;;;;;0.05;0.05;;;17.90;74.50;;;;;;6242078;22;45190;-51
2024/01/02 11:31:21;;;;;;;0.10;0.00;;;17.90;74.60;;;;;;6240498;22;45106;-51
2024/01/02 11:34:02;;;;;;;0.10;0.10;;;17.90;74.70;;;;;;6240277;22;46477;-51
2024/01/02 11:36:44;;;;;;;0.05;0.00;;;17.90;74.80;;;;;;6243179;22;45053;-51
2024/01/02 11:39:14;;;;;;;0.00;0.00;;;17.90;74.80;;;;;;6241667;22;45036;-51
2024/01/02 11:42:05;;;;;;;0.00;0.00;;;17.90;75.10;;;;;;6242076;22;44572;-51
2024/01/02 11:44:41;;;;;;;0.10;0.00;;;17.90;75.00;;;;;;6239947;22;48192;-51
2024/01/02 11:47:20;;;;;;;0.00;0.00;;;17.90;75.10;;;;;;6242533;22;45084;-51
2024/01/02 11:49:49;;;;;;;0.00;0.00;;;17.90;74.90;;;;;;6241747;22;45002;-50
2024/01/02 11:52:19;;;;;;;0.90;0.20;;;17.90;75.00;;;;;;6240376;22;45273;-51
2024/01/02 11:54:57;;;;;;;0.00;0.00;;;17.90;75.00;;;;;;6242601;22;46246;-51
2024/01/02 11:57:28;;;;;;;0.20;0.10;;;17.90;75.10;;;;;;6240189;22;45000;-51
2024/01/02 12:00:00;;;;;;;0.10;0.10;;;17.90;75.00;;;;;;6238926;22;45028;-50
2024/01/02 12:02:45;;;;;;;0.47;0.00;;;17.90;75.40;;;;;;6239487;22;45268;-51
2024/01/02 12:05:20;;;;;;;0.13;0.10;;;17.90;75.80;;;;;;6241950;22;46159;-51
2024/01/02 12:07:54;;;;;;;0.17;0.00;;;17.90;75.60;;;;;;6237725;22;45099;-51
2024/01/02 12:10:24;;;;;;;0.05;0.00;;;17.80;74.90;;;;;;6235918;22;45081;-51
2024/01/02 12:12:57;;;;;;;0.00;0.00;;;17.80;75.30;;;;;;6240820;22;45039;-51
2024/01/02 12:15:32;;;;;;;0.00;0.00;;;17.80;75.90;;;;;;6239061;22;47310;-51
2024/01/02 12:18:00;;;;;;;0.10;0.08;;;17.90;75.90;;;;;;6236653;22;45288;-51
2024/01/02 12:20:30;;;;;;;0.10;0.10;;;18.00;75.30;;;;;;6242771;22;45215;-51
2024/01/02 12:22:58;;;;;;;0.00;0.00;;;18.00;75.00;;;;;;6242865;22;45433;-51
2024/01/02 12:25:27;;;;;;;0.00;0.00;;;18.10;75.10;;;;;;6240688;22;48239;-51
2024/01/02 12:27:55;;;;;;;0.32;0.10;;;18.10;74.90;;;;;;6242352;22;45132;-51
2024/01/02 12:30:29;;;;;;;0.00;0.00;;;18.10;74.70;;;;;;6242031;22;44616;-50
2024/01/02 12:33:16;;;;;;;0.05;0.00;;;18.10;74.60;;;;;;6240526;22;45274;-51
2024/01/02 12:35:55;;;;;;;0.20;0.00;;;18.10;74.60;;;;;;6242531;22;45115;-50
2024/01/02 12:38:22;;;;;;;0.00;0.00;;;18.10;74.50;;;;;;6240014;22;45025;-51
2024/01/02 12:40:52;;;;;;;0.00;0.00;;;18.10;74.60;;;;;;6241185;22;45115;-51
2024/01/02 12:43:20;;;;;;;0.03;0.00;;;18.10;74.70;;;;;;6241674;22;45026;-51
2024/01/02 12:46:05;;;;;;;0.20;0.10;;;18.00;74.70;;;;;;6242605;22;45174;-51
2024/01/02 12:48:41;;;;;;;0.00;0.00;;;18.00;74.90;;;;;;6243095;22;45127;-50
2024/01/02 12:51:11;;;;;;;0.10;0.05;;;18.00;74.90;;;;;;6241956;22;45051;-51
2024/01/02 12:53:41;;;;;;;0.00;0.00;;;18.00;75.00;;;;;;6241303;22;45059;-51
2024/01/02 12:56:17;;;;;;;0.38;0.10;;;18.00;75.10;;;;;;6242266;22;47278;-51
2024/01/02 12:58:46;;;;;;;0.20;0.10;;;18.00;75.00;;;;;;6241099;22;45092;-51